Columbia Heights, Illinois
Current Conditions -  °F | °C
As of 10:15 PM on Thursday 27 Nov 2014 (Local Time) from KGBG Reporting Station
Broken Clouds Broken Clouds  
Wind Chill: 10°   Ceiling: 9000
Heat Index: 10°   Visibility: 10mi
Dew Point:   Wind: 0mph
Humidity: 83%   Direction: NA
Pressure: 30.41"   Gusts: NA
Location:  40.945°N, 90.3106°W
Report Text: KGBG 280415Z AUTO 00000KT 10SM BKN090 M12/M14 A3041 RMK AO2 T11201143
Loading
Personal Weather Stations






























Interactive Weather Map New forecast layout! Learn more

10-Day Weather Forecast

Advertisements
Track Severe Weather on mobile